createdAt,value
2017-03-05T00:00:16.084Z,95.1
2017-03-05T00:02:21.446Z,95
2017-03-05T00:03:24.482Z,95
2017-03-05T00:04:26.926Z,95
2017-03-05T00:05:29.389Z,95
2017-03-05T00:06:32.336Z,95
2017-03-05T00:07:34.781Z,95
2017-03-05T00:08:37.983Z,94.9
2017-03-05T00:09:40.433Z,94.9
2017-03-05T00:10:43.403Z,94.9
2017-03-05T00:12:48.284Z,94.9
2017-03-05T00:13:50.990Z,94.9
2017-03-05T00:14:53.461Z,94.9
2017-03-05T00:15:56.415Z,94.9
2017-03-05T00:16:58.895Z,94.9
2017-03-05T00:18:01.340Z,94.9
2017-03-05T00:19:04.598Z,94.9
2017-03-05T00:20:06.890Z,95
2017-03-05T00:21:09.336Z,95
2017-03-05T00:22:12.285Z,95
2017-03-05T00:23:14.568Z,95
2017-03-05T00:24:17.829Z,95
2017-03-05T00:25:20.138Z,95
2017-03-05T00:26:22.414Z,95
2017-03-05T00:27:25.375Z,95
2017-03-05T00:28:28.350Z,95
2017-03-05T00:29:31.059Z,95
2017-03-05T00:30:33.556Z,95
2017-03-05T00:31:36.011Z,95
2017-03-05T00:32:38.966Z,95
2017-03-05T00:33:41.427Z,95
2017-03-05T00:34:44.130Z,95
2017-03-05T00:35:46.577Z,95
2017-03-05T00:36:49.525Z,95
2017-03-05T00:37:51.988Z,95
2017-03-05T00:38:54.445Z,95
2017-03-05T00:39:57.700Z,95
2017-03-05T00:41:00.156Z,95
2017-03-05T00:42:02.602Z,95
2017-03-05T00:43:05.074Z,95
2017-03-05T00:44:07.856Z,95
2017-03-05T00:45:10.771Z,95
2017-03-05T00:46:13.066Z,95
2017-03-05T00:47:15.855Z,95
2017-03-05T00:48:18.329Z,95
2017-03-05T00:49:21.307Z,95
2017-03-05T00:50:24.001Z,95
2017-03-05T00:51:26.468Z,95
2017-03-05T00:52:28.764Z,95
2017-03-05T00:53:31.570Z,95.1
2017-03-05T00:54:34.553Z,95.1
2017-03-05T00:55:37.272Z,95.1
2017-03-05T00:56:39.733Z,95.1
2017-03-05T00:57:42.198Z,95.1
2017-03-05T00:58:45.188Z,95.1
2017-03-05T00:59:47.651Z,95.1
2017-03-05T01:00:50.370Z,95.1
2017-03-05T01:01:52.816Z,95.1
2017-03-05T01:02:55.424Z,95.1
2017-03-05T01:03:58.380Z,95.1
2017-03-05T01:05:00.856Z,95.1
2017-03-05T01:06:04.063Z,95.1
2017-03-05T01:07:06.017Z,95.1
2017-03-05T01:08:08.967Z,95.1
2017-03-05T01:09:11.428Z,95.1
2017-03-05T01:10:14.386Z,95.1
2017-03-05T01:11:17.099Z,95.1
2017-03-05T01:12:19.415Z,95.1
2017-03-05T01:13:22.377Z,95.1
2017-03-05T01:14:24.662Z,95.1
2017-03-05T01:15:27.615Z,95.2
2017-03-05T01:16:30.843Z,95.2
2017-03-05T01:17:32.795Z,95.2
2017-03-05T01:18:35.244Z,95.2
2017-03-05T01:19:38.223Z,95.2
2017-03-05T01:20:40.702Z,95.2
2017-03-05T01:21:43.408Z,95.2
2017-03-05T01:23:48.764Z,95.2
2017-03-05T01:24:51.243Z,95.2
2017-03-05T01:25:53.890Z,95.2
2017-03-05T01:26:56.657Z,95.2
2017-03-05T01:27:59.105Z,95.2
2017-03-05T01:29:02.071Z,95.2
2017-03-05T01:30:04.547Z,95.2
2017-03-05T01:31:07.010Z,95.2
2017-03-05T01:32:10.250Z,95.2
2017-03-05T01:34:14.774Z,95.2
2017-03-05T01:35:17.414Z,95.2
2017-03-05T01:36:20.209Z,95.2
2017-03-05T01:37:23.298Z,95.2
2017-03-05T01:38:25.751Z,95.2
2017-03-05T01:39:28.223Z,95.2
2017-03-05T01:40:31.182Z,95.2
2017-03-05T01:41:33.629Z,95.2
2017-03-05T01:42:36.342Z,95.2
2017-03-05T01:43:38.821Z,95.2
2017-03-05T01:44:41.640Z,95.3
2017-03-05T01:45:44.088Z,95.3
2017-03-05T01:46:47.043Z,95.3
2017-03-05T01:47:49.593Z,95.3
2017-03-05T01:48:52.388Z,95.3
2017-03-05T01:49:54.863Z,95.4
2017-03-05T01:50:57.309Z,95.3
2017-03-05T01:52:00.264Z,95.3
2017-03-05T01:53:02.975Z,95.3
2017-03-05T01:54:05.433Z,95.3
2017-03-05T01:56:10.620Z,95.3
2017-03-05T01:58:16.276Z,95.3
2017-03-05T01:59:18.735Z,95.3
2017-03-05T02:00:21.035Z,95.3
2017-03-05T02:01:23.990Z,95.3
2017-03-05T02:02:26.434Z,95.3
2017-03-05T02:03:29.517Z,95.3
2017-03-05T02:04:31.965Z,95.3
2017-03-05T02:05:34.426Z,95.3
2017-03-05T02:06:36.890Z,95.3
2017-03-05T02:07:39.842Z,95.4
2017-03-05T02:08:42.545Z,95.4
2017-03-05T02:09:44.999Z,95.4
2017-03-05T02:10:47.959Z,95.3
2017-03-05T02:11:50.412Z,95.3
2017-03-05T02:12:52.885Z,95.3
2017-03-05T02:13:56.138Z,95.3
2017-03-05T02:14:58.607Z,95.3
2017-03-05T02:16:01.081Z,95.4
2017-03-05T02:17:03.535Z,95.4
2017-03-05T02:18:06.494Z,95.3
2017-03-05T02:19:09.197Z,95.3
2017-03-05T02:20:11.689Z,95.4
2017-03-05T02:21:14.153Z,95.4
2017-03-05T02:22:16.600Z,95.4
2017-03-05T02:23:19.283Z,95.4
2017-03-05T02:24:22.511Z,95.4
2017-03-05T02:25:24.961Z,95.4
2017-03-05T02:26:27.447Z,95.4
2017-03-05T02:27:29.902Z,95.4
2017-03-05T02:28:32.687Z,95.4
2017-03-05T02:29:35.385Z,95.4
2017-03-05T02:30:37.841Z,95.4
2017-03-05T02:31:40.797Z,95.4
2017-03-05T02:32:43.253Z,95.4
2017-03-05T02:33:46.229Z,95.4
2017-03-05T02:34:48.984Z,95.4
2017-03-05T02:35:50.942Z,95.4
2017-03-05T02:36:53.916Z,95.4
2017-03-05T02:37:56.902Z,95.4
2017-03-05T02:38:58.862Z,95.4
2017-03-05T02:40:02.095Z,95.4
2017-03-05T02:41:04.547Z,95.3
2017-03-05T02:42:06.992Z,95.3
2017-03-05T02:43:09.442Z,95.3
2017-03-05T02:44:12.914Z,95.3
2017-03-05T02:45:15.113Z,95.3
2017-03-05T02:46:17.388Z,95.3
2017-03-05T02:47:20.170Z,95.3
2017-03-05T02:48:22.618Z,95.3
2017-03-05T02:49:25.572Z,95.3
2017-03-05T02:50:28.608Z,95.3
2017-03-05T02:51:30.570Z,95.3
2017-03-05T02:52:33.573Z,95.3
2017-03-05T02:53:36.032Z,95.3
2017-03-05T02:54:38.481Z,95.3
2017-03-05T02:55:41.702Z,95.3
2017-03-05T02:56:44.147Z,95.3
2017-03-05T02:57:46.598Z,95.3
2017-03-05T02:58:49.044Z,95.3
2017-03-05T02:59:51.965Z,95.3
2017-03-05T03:00:54.666Z,95.3
2017-03-05T03:01:57.119Z,95.3
2017-03-05T03:02:59.573Z,95.2
2017-03-05T03:04:02.538Z,95.3
2017-03-05T03:05:05.050Z,95.3
2017-03-05T03:06:07.750Z,95.3
2017-03-05T03:07:10.200Z,95.3
2017-03-05T03:08:13.149Z,95.3
2017-03-05T03:09:15.438Z,95.3
2017-03-05T03:10:18.388Z,95.3
2017-03-05T03:11:20.921Z,95.3
2017-03-05T03:12:23.459Z,95.3
2017-03-05T03:13:26.412Z,95.3
2017-03-05T03:14:28.590Z,95.2
2017-03-05T03:15:31.557Z,95.2
2017-03-05T03:16:34.258Z,95.2
2017-03-05T03:17:36.735Z,95.2
2017-03-05T03:18:39.194Z,95.2
2017-03-05T03:19:42.172Z,95.2
2017-03-05T03:20:44.454Z,95.2
2017-03-05T03:21:47.710Z,95.2
2017-03-05T03:22:50.162Z,95.2
2017-03-05T03:23:52.635Z,95.2
2017-03-05T03:24:55.087Z,95.2
2017-03-05T03:25:58.056Z,95.2
2017-03-05T03:27:00.639Z,95.2
2017-03-05T03:28:03.091Z,95.2
2017-03-05T03:29:05.539Z,95.2
2017-03-05T03:30:08.508Z,95.2
2017-03-05T03:31:10.787Z,95.2
2017-03-05T03:32:14.060Z,95.2
2017-03-05T03:33:16.538Z,95.2
2017-03-05T03:34:18.986Z,95.2
2017-03-05T03:36:24.182Z,95.2
2017-03-05T03:37:26.930Z,95.2
2017-03-05T03:38:29.721Z,95.2
2017-03-05T03:39:32.173Z,95.2
2017-03-05T03:40:34.634Z,95.2
2017-03-05T03:41:37.603Z,95.2
2017-03-05T03:42:40.368Z,95.2
2017-03-05T03:43:42.820Z,95.2
2017-03-05T03:44:45.272Z,95.1
2017-03-05T03:45:47.712Z,95.2
2017-03-05T03:46:50.696Z,95.2
2017-03-05T03:47:53.406Z,95.1
2017-03-05T03:48:55.860Z,95.1
2017-03-05T03:49:58.303Z,95.1
2017-03-05T03:51:01.252Z,95.1
2017-03-05T03:53:06.360Z,95.1
2017-03-05T03:54:08.804Z,95.1
2017-03-05T03:55:11.757Z,95.1
2017-03-05T03:56:14.210Z,95.1
2017-03-05T03:57:16.669Z,95.1
2017-03-05T03:58:19.927Z,95.1
2017-03-05T03:59:22.219Z,95.2
2017-03-05T04:00:24.667Z,95.2
2017-03-05T04:01:27.444Z,95.2
2017-03-05T04:02:29.892Z,95.2
2017-03-05T04:03:33.159Z,95.1
2017-03-05T04:04:35.120Z,95.1
2017-03-05T04:05:38.081Z,95.1
2017-03-05T04:06:40.543Z,95.1
2017-03-05T04:07:43.127Z,95.1
2017-03-05T04:08:46.381Z,95.1
2017-03-05T04:09:48.339Z,95.1
2017-03-05T04:10:51.304Z,95.1
2017-03-05T04:12:56.156Z,95.1
2017-03-05T04:13:59.907Z,95.1
2017-03-05T04:15:01.856Z,95.1
2017-03-05T04:16:04.307Z,95.1
2017-03-05T04:17:06.761Z,95.1
2017-03-05T04:18:10.238Z,95.1
2017-03-05T04:19:12.446Z,95.1
2017-03-05T04:21:17.157Z,95.1
2017-03-05T04:22:20.115Z,95.1
2017-03-05T04:23:22.560Z,95.1
2017-03-05T04:24:25.765Z,95.1
2017-03-05T04:25:27.733Z,95.1
2017-03-05T04:26:30.694Z,95.1
2017-03-05T04:27:33.157Z,95.1
2017-03-05T04:28:35.603Z,95.1
2017-03-05T04:29:38.811Z,95.1
2017-03-05T04:30:41.256Z,95.1
2017-03-05T04:31:43.703Z,95.1
2017-03-05T04:32:46.144Z,95.1
2017-03-05T04:33:49.007Z,95.1
2017-03-05T04:34:51.762Z,95.1
2017-03-05T04:35:54.248Z,95.1
2017-03-05T04:36:56.702Z,95.1
2017-03-05T04:37:59.649Z,95.1
2017-03-05T04:39:02.349Z,95.1
2017-03-05T04:40:05.070Z,95.1
2017-03-05T04:41:07.358Z,95.1
2017-03-05T04:42:10.323Z,95.1
2017-03-05T04:44:15.208Z,95.1
2017-03-05T04:45:18.947Z,95.1
2017-03-05T04:46:20.726Z,95.1
2017-03-05T04:47:23.185Z,95.1
2017-03-05T04:48:26.135Z,95.1
2017-03-05T04:49:28.416Z,95.1
2017-03-05T04:50:31.670Z,95.1
2017-03-05T04:51:33.617Z,95.1
2017-03-05T04:52:36.578Z,95.1
2017-03-05T04:54:41.935Z,95.1
2017-03-05T04:55:44.663Z,95.1
2017-03-05T04:56:47.118Z,95.2
2017-03-05T04:58:52.000Z,95.2
2017-03-05T04:59:54.955Z,95.2
2017-03-05T05:00:57.713Z,95.2
2017-03-05T05:02:00.156Z,95.2
2017-03-05T05:03:02.604Z,95.2
2017-03-05T05:04:05.402Z,95.2
2017-03-05T05:05:07.858Z,95.2
2017-03-05T05:06:10.904Z,95.3
2017-03-05T05:07:13.361Z,95.3
2017-03-05T05:08:15.807Z,95.3
2017-03-05T05:09:18.753Z,95.3
2017-03-05T05:10:21.209Z,95.3
2017-03-05T05:11:23.907Z,95.3
2017-03-05T05:12:26.187Z,95.3
2017-03-05T05:13:29.138Z,95.3
2017-03-05T05:14:31.591Z,95.3
2017-03-05T05:15:34.551Z,95.3
2017-03-05T05:16:37.264Z,95.3
2017-03-05T05:17:39.718Z,95.3
2017-03-05T05:18:42.169Z,95.3
2017-03-05T05:19:45.658Z,95.3
2017-03-05T05:20:47.597Z,95.3
2017-03-05T05:21:50.338Z,95.4
2017-03-05T05:22:52.789Z,95.4
2017-03-05T05:23:55.252Z,95.4
2017-03-05T05:24:58.198Z,95.4
2017-03-05T05:26:00.643Z,95.4
2017-03-05T05:28:06.253Z,95.4
2017-03-05T05:29:08.532Z,95.4
2017-03-05T05:30:11.487Z,95.4
2017-03-05T05:31:13.958Z,95.4
2017-03-05T05:32:16.415Z,95.4
2017-03-05T05:33:19.449Z,95.4
2017-03-05T05:34:21.903Z,95.4
2017-03-05T05:35:24.181Z,95.4
2017-03-05T05:36:27.002Z,95.4
2017-03-05T05:37:29.965Z,95.4
2017-03-05T05:38:32.729Z,95.4
2017-03-05T05:39:35.207Z,95.4
2017-03-05T05:40:37.683Z,95.4
2017-03-05T05:41:40.484Z,95.4
2017-03-05T05:42:42.934Z,95.4
2017-03-05T05:43:45.639Z,95.4
2017-03-05T05:44:48.099Z,95.4
2017-03-05T05:45:51.049Z,95.4
2017-03-05T05:46:53.496Z,95.4
2017-03-05T05:47:55.947Z,95.4
2017-03-05T05:48:59.155Z,95.4
2017-03-05T05:50:01.449Z,95.4
2017-03-05T05:51:03.895Z,95.4
2017-03-05T05:52:06.851Z,95.4
2017-03-05T05:53:09.296Z,95.4
2017-03-05T05:54:12.057Z,95.4
2017-03-05T05:55:14.655Z,95.4
2017-03-05T05:56:17.120Z,95.4
2017-03-05T05:57:19.412Z,95.4
2017-03-05T05:59:25.531Z,95.4
2017-03-05T06:00:27.475Z,95.4
2017-03-05T06:01:30.428Z,95.4
2017-03-05T06:02:32.885Z,95.4
2017-03-05T06:03:35.840Z,95.4
2017-03-05T06:04:38.553Z,95.4
2017-03-05T06:05:41.013Z,95.4
2017-03-05T06:06:43.467Z,95.4
2017-03-05T06:07:45.914Z,95.4
2017-03-05T06:08:48.868Z,95.4
2017-03-05T06:09:51.585Z,95.4
2017-03-05T06:10:54.049Z,95.5
2017-03-05T06:11:56.497Z,95.5
2017-03-05T06:12:59.462Z,95.5
2017-03-05T06:14:01.911Z,95.5
2017-03-05T06:15:04.612Z,95.5
2017-03-05T06:16:07.074Z,95.5
2017-03-05T06:17:10.020Z,95.5
2017-03-05T06:18:13.016Z,95.5
2017-03-05T06:19:14.965Z,95.5
2017-03-05T06:20:18.009Z,95.5
2017-03-05T06:21:20.453Z,95.5
2017-03-05T06:22:22.911Z,95.5
2017-03-05T06:23:25.861Z,95.5
2017-03-05T06:24:28.165Z,95.5
2017-03-05T06:25:31.217Z,95.5
2017-03-05T06:26:34.198Z,95.5
2017-03-05T06:27:36.164Z,95.5
2017-03-05T06:28:38.612Z,95.5
2017-03-05T06:29:41.592Z,95.5
2017-03-05T06:30:44.298Z,95.5
2017-03-05T06:31:46.744Z,95.5
2017-03-05T06:32:49.190Z,95.5
2017-03-05T06:33:52.149Z,95.5
2017-03-05T06:34:55.118Z,95.5
2017-03-05T06:35:57.336Z,95.5
2017-03-05T06:36:59.780Z,95.5
2017-03-05T06:38:02.733Z,95.5
2017-03-05T06:39:05.177Z,95.5
2017-03-05T06:40:07.458Z,95.5
2017-03-05T06:41:10.660Z,95.5
2017-03-05T06:42:13.114Z,95.5
2017-03-05T06:43:15.561Z,95.5
2017-03-05T06:45:20.930Z,95.5
2017-03-05T06:46:23.686Z,95.5
2017-03-05T06:47:26.144Z,95.5
2017-03-05T06:48:28.588Z,95.5
2017-03-05T06:50:33.958Z,95.5
2017-03-05T06:51:37.004Z,95.5
2017-03-05T06:52:39.461Z,95.5
2017-03-05T06:53:41.921Z,95.5
2017-03-05T06:54:44.872Z,95.5
2017-03-05T06:55:47.331Z,95.5
2017-03-05T06:56:50.029Z,95.5
2017-03-05T06:57:52.491Z,95.5
2017-03-05T06:59:57.846Z,95.5
2017-03-05T07:01:00.284Z,95.5
2017-03-05T07:03:05.896Z,95.5
2017-03-05T07:04:08.362Z,95.5
2017-03-05T07:05:11.150Z,95.5
2017-03-05T07:06:13.607Z,95.5
2017-03-05T07:07:16.055Z,95.5
2017-03-05T07:08:19.253Z,95.5
2017-03-05T07:09:21.566Z,95.5
2017-03-05T07:10:24.011Z,95.5
2017-03-05T07:11:26.975Z,95.5
2017-03-05T07:12:29.438Z,95.5
2017-03-05T07:13:32.199Z,95.5
2017-03-05T07:14:34.644Z,95.5
2017-03-05T07:15:37.100Z,95.5
2017-03-05T07:16:40.066Z,95.5
2017-03-05T07:17:42.538Z,95.5
2017-03-05T07:18:45.247Z,95.5
2017-03-05T07:19:47.717Z,95.5
2017-03-05T07:20:51.198Z,95.5
2017-03-05T07:21:53.137Z,95.5
2017-03-05T07:22:55.599Z,95.5
2017-03-05T07:23:58.831Z,95.5
2017-03-05T07:26:03.707Z,95.5
2017-03-05T07:27:06.162Z,95.5
2017-03-05T07:28:09.110Z,95.5
2017-03-05T07:29:11.714Z,95.5
2017-03-05T07:30:14.182Z,95.5
2017-03-05T07:31:16.633Z,95.5
2017-03-05T07:32:19.435Z,95.5
2017-03-05T07:33:22.047Z,95.5
2017-03-05T07:34:25.091Z,95.5
2017-03-05T07:35:27.091Z,95.5
2017-03-05T07:36:29.875Z,95.5
2017-03-05T07:37:32.828Z,95.5
2017-03-05T07:38:35.277Z,95.5
2017-03-05T07:39:38.029Z,95.5
2017-03-05T07:40:40.479Z,95.5
2017-03-05T07:41:42.933Z,95.5
2017-03-05T07:42:45.887Z,95.5
2017-03-05T07:43:48.873Z,95.5
2017-03-05T07:44:51.126Z,95.5
2017-03-05T07:45:53.577Z,95.5
2017-03-05T07:46:56.028Z,95.6
2017-03-05T07:47:59.506Z,95.5
2017-03-05T07:49:01.453Z,95.5
2017-03-05T07:50:04.660Z,95.5
2017-03-05T07:51:06.627Z,95.5
2017-03-05T07:52:09.582Z,95.5
2017-03-05T07:53:12.551Z,95.5
2017-03-05T07:54:14.518Z,95.5
2017-03-05T07:55:17.718Z,95.6
2017-03-05T07:56:20.002Z,95.6
2017-03-05T07:58:25.374Z,95.6
2017-03-05T07:59:27.839Z,95.6
2017-03-05T08:00:30.543Z,95.6
2017-03-05T08:01:33.008Z,95.6
2017-03-05T08:02:35.986Z,95.6
2017-03-05T08:03:38.435Z,95.6
2017-03-05T08:04:40.901Z,95.6
2017-03-05T08:05:44.177Z,95.6
2017-03-05T08:06:46.124Z,95.6
2017-03-05T08:07:49.077Z,95.6
2017-03-05T08:09:53.931Z,95.6
2017-03-05T08:10:57.192Z,95.6
2017-03-05T08:11:59.507Z,95.6
2017-03-05T08:13:01.956Z,95.6
2017-03-05T08:14:04.910Z,95.6
2017-03-05T08:15:07.354Z,95.6
2017-03-05T08:16:10.064Z,95.6
2017-03-05T08:17:12.516Z,95.6
2017-03-05T08:18:15.481Z,95.6
2017-03-05T08:19:17.948Z,95.6
2017-03-05T08:20:20.922Z,95.6
2017-03-05T08:21:23.620Z,95.6
2017-03-05T08:22:25.570Z,95.6
2017-03-05T08:23:28.524Z,95.6
2017-03-05T08:24:30.975Z,95.6
2017-03-05T08:25:33.936Z,95.6
2017-03-05T08:26:36.468Z,95.6
2017-03-05T08:27:38.924Z,95.6
2017-03-05T08:28:41.891Z,95.7
2017-03-05T08:29:44.352Z,95.6
2017-03-05T08:30:46.809Z,95.6
2017-03-05T08:31:50.575Z,95.6
2017-03-05T08:33:54.931Z,95.6
2017-03-05T08:34:57.404Z,95.6
2017-03-05T08:36:00.187Z,95.6
2017-03-05T08:37:02.885Z,95.7
2017-03-05T08:38:05.332Z,95.6
2017-03-05T08:39:08.131Z,95.6
2017-03-05T08:40:10.582Z,95.6
2017-03-05T08:41:13.536Z,95.6
2017-03-05T08:42:16.236Z,95.6
2017-03-05T08:43:18.678Z,95.6
2017-03-05T08:44:21.148Z,95.6
2017-03-05T08:45:24.102Z,95.6
2017-03-05T08:46:26.554Z,95.6
2017-03-05T08:47:29.307Z,95.6
2017-03-05T08:48:31.779Z,95.6
2017-03-05T08:49:34.238Z,95.6
2017-03-05T08:50:37.195Z,95.6
2017-03-05T08:51:39.649Z,95.6
2017-03-05T08:52:42.741Z,95.6
2017-03-05T08:53:45.173Z,95.6
2017-03-05T08:54:47.454Z,95.6
2017-03-05T08:55:50.409Z,95.6
2017-03-05T08:56:52.888Z,95.6
2017-03-05T08:57:55.590Z,95.6
2017-03-05T08:58:58.062Z,95.6
2017-03-05T09:00:01.037Z,95.6
2017-03-05T09:01:03.483Z,95.6
2017-03-05T09:02:05.956Z,95.6
2017-03-05T09:03:09.183Z,95.6
2017-03-05T09:04:11.467Z,95.6
2017-03-05T09:05:14.778Z,95.6
2017-03-05T09:06:16.728Z,95.6
2017-03-05T09:07:19.181Z,95.6
2017-03-05T09:08:22.447Z,95.6
2017-03-05T09:09:24.911Z,95.6
2017-03-05T09:10:27.361Z,95.6
2017-03-05T09:11:29.644Z,95.6
2017-03-05T09:12:32.594Z,95.6
2017-03-05T09:13:35.298Z,95.6
2017-03-05T09:14:37.755Z,95.6
2017-03-05T09:15:40.708Z,95.5
2017-03-05T09:16:43.171Z,95.5
2017-03-05T09:17:45.630Z,95.5
2017-03-05T09:18:48.867Z,95.5
2017-03-05T09:19:51.305Z,95.5
2017-03-05T09:20:53.767Z,95.5
2017-03-05T09:21:56.221Z,95.5
2017-03-05T09:22:59.199Z,95.5
2017-03-05T09:24:01.923Z,95.5
2017-03-05T09:25:04.374Z,95.5
2017-03-05T09:26:06.841Z,95.5
2017-03-05T09:27:09.623Z,95.5
2017-03-05T09:28:12.429Z,95.5
2017-03-05T09:29:15.192Z,95.5
2017-03-05T09:30:17.663Z,95.4
2017-03-05T09:31:20.113Z,95.4
2017-03-05T09:32:23.069Z,95.4
2017-03-05T09:33:25.521Z,95.4
2017-03-05T09:34:28.632Z,95.4
2017-03-05T09:35:31.087Z,95.4
2017-03-05T09:37:36.466Z,95.4
2017-03-05T09:38:38.916Z,95.3
2017-03-05T09:39:41.642Z,95.3
2017-03-05T09:40:44.088Z,95.3
2017-03-05T09:41:47.038Z,95.3
2017-03-05T09:42:49.484Z,95.3
2017-03-05T09:43:52.438Z,95.2
2017-03-05T09:44:56.381Z,95.2
2017-03-05T09:45:57.357Z,95.2
2017-03-05T09:47:00.309Z,95.2
2017-03-05T09:48:03.281Z,95.2
2017-03-05T09:49:05.733Z,95.2
2017-03-05T09:50:08.099Z,95.2
2017-03-05T09:51:11.088Z,95.1
2017-03-05T09:52:13.559Z,95.1
2017-03-05T09:53:16.016Z,95.1
2017-03-05T09:55:21.978Z,95.1
2017-03-05T09:56:23.933Z,95.1
2017-03-05T09:57:26.882Z,95.1
2017-03-05T09:58:29.341Z,95
2017-03-05T09:59:32.297Z,95
2017-03-05T10:00:34.996Z,95
2017-03-05T10:01:37.443Z,95
2017-03-05T10:02:39.924Z,95
2017-03-05T10:03:42.872Z,94.9
2017-03-05T10:04:45.320Z,94.9
2017-03-05T10:05:48.524Z,94.9
2017-03-05T10:06:50.984Z,94.9
2017-03-05T10:07:53.451Z,94.8
2017-03-05T10:08:56.235Z,94.8
2017-03-05T10:09:58.678Z,94.8
2017-03-05T10:11:01.475Z,94.8
2017-03-05T10:12:03.937Z,94.7
2017-03-05T10:13:06.918Z,94.7
2017-03-05T10:14:09.408Z,94.7
2017-03-05T10:15:12.357Z,94.6
2017-03-05T10:16:14.894Z,94.6
2017-03-05T10:17:17.685Z,94.6
2017-03-05T10:18:20.158Z,94.6
2017-03-05T10:19:22.629Z,94.6
2017-03-05T10:20:25.511Z,94.5
2017-03-05T10:21:28.207Z,94.5
2017-03-05T10:22:30.659Z,94.5
2017-03-05T10:23:34.142Z,94.5
2017-03-05T10:24:36.126Z,94.5
2017-03-05T10:25:39.092Z,94.5
2017-03-05T10:26:41.842Z,94.5
2017-03-05T10:27:44.121Z,94.4
2017-03-05T10:28:46.765Z,94.4
2017-03-05T10:29:49.737Z,94.4
2017-03-05T10:30:52.215Z,94.4
2017-03-05T10:31:54.976Z,94.4
2017-03-05T10:32:57.422Z,94.4
2017-03-05T10:34:00.372Z,94.4
2017-03-05T10:35:02.683Z,94.4
2017-03-05T10:36:05.319Z,94.3
2017-03-05T10:37:08.572Z,94.3
2017-03-05T10:38:11.035Z,94.3
2017-03-05T10:39:13.497Z,94.2
2017-03-05T10:40:16.305Z,94.2
2017-03-05T10:41:18.762Z,94.2
2017-03-05T10:43:24.376Z,94
2017-03-05T10:44:26.838Z,94
2017-03-05T10:45:29.821Z,93.9
2017-03-05T10:46:32.291Z,93.9
2017-03-05T10:47:34.757Z,93.9
2017-03-05T10:48:38.010Z,93.8
2017-03-05T10:49:40.453Z,93.8
2017-03-05T10:50:42.744Z,93.7
2017-03-05T10:51:45.701Z,93.7
2017-03-05T10:52:48.153Z,93.6
2017-03-05T10:53:51.371Z,93.6
2017-03-05T10:54:53.829Z,93.5
2017-03-05T10:55:56.280Z,93.4
2017-03-05T10:56:59.260Z,93.4
2017-03-05T10:58:01.712Z,93.4
2017-03-05T10:59:04.427Z,93.4
2017-03-05T11:00:06.902Z,93.4
2017-03-05T11:01:09.891Z,93.4
2017-03-05T11:02:12.352Z,93.3
2017-03-05T11:03:15.300Z,93.3
2017-03-05T11:04:18.010Z,93.3
2017-03-05T11:05:20.455Z,93.3
2017-03-05T11:06:23.232Z,93.2
2017-03-05T11:07:25.715Z,93.2
2017-03-05T11:08:28.672Z,93.2
2017-03-05T11:09:31.392Z,93.2
2017-03-05T11:10:33.844Z,93.2
2017-03-05T11:11:36.808Z,93.2
2017-03-05T11:12:39.281Z,93.2
2017-03-05T11:13:41.743Z,93.1
2017-03-05T11:14:44.961Z,93.1
2017-03-05T11:15:47.429Z,93.1
2017-03-05T11:16:49.877Z,93.1
2017-03-05T11:17:52.860Z,93
2017-03-05T11:18:55.317Z,93
2017-03-05T11:19:58.025Z,92.9
2017-03-05T11:22:03.902Z,92.7
2017-03-05T11:23:05.868Z,92.6
2017-03-05T11:24:08.823Z,92.5
2017-03-05T11:25:12.047Z,92.4
2017-03-05T11:26:13.987Z,92.4
2017-03-05T11:27:16.767Z,92.3
2017-03-05T11:28:19.241Z,92.3
2017-03-05T11:29:22.047Z,92.3
2017-03-05T11:30:25.305Z,92.2
2017-03-05T11:31:27.751Z,92.2
2017-03-05T11:32:30.206Z,92.2
2017-03-05T11:33:32.653Z,92.1
2017-03-05T11:34:35.599Z,92.1
2017-03-05T11:35:38.321Z,92.2
2017-03-05T11:36:40.780Z,92.2
2017-03-05T11:37:43.730Z,92.2
2017-03-05T11:38:46.187Z,92.3
2017-03-05T11:39:49.153Z,92.3
2017-03-05T11:40:51.912Z,92.3
2017-03-05T11:41:54.372Z,92.4
2017-03-05T11:42:57.335Z,92.4
2017-03-05T11:43:59.792Z,92.3
2017-03-05T11:45:02.744Z,92.3
2017-03-05T11:46:05.294Z,92.3
2017-03-05T11:47:08.096Z,92.3
2017-03-05T11:48:10.399Z,92.3
2017-03-05T11:49:13.354Z,92.3
2017-03-05T11:50:16.146Z,92.3
2017-03-05T11:51:18.855Z,92.4
2017-03-05T11:52:21.154Z,92.4
2017-03-05T11:53:24.117Z,92.4
2017-03-05T11:54:26.409Z,92.4
2017-03-05T11:55:29.369Z,92.4
2017-03-05T11:56:33.159Z,92.4
2017-03-05T11:57:34.613Z,92.4
2017-03-05T11:58:37.570Z,92.4
2017-03-05T11:59:40.018Z,92.4
2017-03-05T12:00:42.982Z,92.4
2017-03-05T12:01:45.688Z,92.5
2017-03-05T12:02:48.486Z,92.5
2017-03-05T12:03:50.978Z,92.5
2017-03-05T12:04:53.931Z,92.5
2017-03-05T12:05:56.386Z,92.5
2017-03-05T12:06:59.115Z,92.5
2017-03-05T12:08:01.566Z,92.5
2017-03-05T12:09:04.521Z,92.5
2017-03-05T12:10:07.024Z,92.5
2017-03-05T12:12:12.646Z,92.5
2017-03-05T12:13:15.426Z,92.6
2017-03-05T12:14:17.868Z,92.6
2017-03-05T12:15:20.652Z,92.6
2017-03-05T12:16:23.136Z,92.7
2017-03-05T12:17:26.365Z,92.7
2017-03-05T12:18:28.820Z,92.8
2017-03-05T12:19:31.267Z,92.8
2017-03-05T12:20:34.236Z,92.8
2017-03-05T12:21:36.678Z,92.9
2017-03-05T12:22:39.712Z,92.9
2017-03-05T12:24:45.071Z,93
2017-03-05T12:25:47.528Z,93
2017-03-05T12:26:50.492Z,93
2017-03-05T12:27:53.198Z,93
2017-03-05T12:29:58.596Z,93.1
2017-03-05T12:32:03.966Z,93.1
2017-03-05T12:35:12.509Z,93.1
2017-03-05T12:36:14.456Z,93.1
2017-03-05T12:37:17.438Z,93
2017-03-05T12:38:19.892Z,93
2017-03-05T12:39:22.865Z,93
2017-03-05T12:40:25.681Z,92.9
2017-03-05T12:41:28.124Z,92.9
2017-03-05T12:42:30.464Z,92.8
2017-03-05T12:43:33.424Z,92.8
2017-03-05T12:44:36.389Z,92.7
2017-03-05T12:46:42.072Z,92.7
2017-03-05T12:47:44.011Z,92.7
2017-03-05T12:48:46.990Z,92.8
2017-03-05T12:49:49.433Z,92.8
2017-03-05T12:50:52.389Z,92.8
2017-03-05T12:51:55.083Z,92.8
2017-03-05T12:52:57.535Z,92.8
2017-03-05T12:55:03.232Z,92.9
2017-03-05T12:56:05.874Z,92.9
2017-03-05T12:57:08.640Z,92.8
2017-03-05T12:58:10.946Z,92.8
2017-03-05T12:59:13.804Z,92.8
2017-03-05T13:00:16.618Z,92.8
2017-03-05T13:02:22.277Z,92.8
2017-03-05T13:03:24.740Z,92.8
2017-03-05T13:04:27.690Z,92.8
2017-03-05T13:05:29.997Z,92.8
2017-03-05T13:06:32.953Z,92.8
2017-03-05T13:07:35.984Z,92.8
2017-03-05T13:08:38.440Z,92.7
2017-03-05T13:09:40.935Z,92.7
2017-03-05T13:10:43.897Z,92.7
2017-03-05T13:11:46.355Z,92.8
2017-03-05T13:12:49.139Z,92.8
2017-03-05T13:13:51.611Z,92.8
2017-03-05T13:14:54.605Z,92.8
2017-03-05T13:15:57.073Z,92.8
2017-03-05T13:17:00.024Z,92.8
2017-03-05T13:18:02.743Z,92.8
2017-03-05T13:19:05.228Z,92.8
2017-03-05T13:21:10.611Z,92.8
2017-03-05T13:22:13.419Z,92.8
2017-03-05T13:23:16.145Z,92.8
2017-03-05T13:24:18.591Z,92.8
2017-03-05T13:25:21.543Z,92.8
2017-03-05T13:26:23.991Z,92.9
2017-03-05T13:27:26.942Z,92.9
2017-03-05T13:28:29.643Z,92.9
2017-03-05T13:29:32.117Z,93
2017-03-05T13:30:34.900Z,93
2017-03-05T13:31:37.848Z,93
2017-03-05T13:32:40.300Z,93.1
2017-03-05T13:33:43.512Z,93.1
2017-03-05T13:34:45.961Z,93.2
2017-03-05T13:35:48.410Z,93.2
2017-03-05T13:36:51.202Z,93.3
2017-03-05T13:37:53.495Z,93.3
2017-03-05T13:38:56.747Z,93.3
2017-03-05T13:39:59.219Z,93.3
2017-03-05T13:41:02.173Z,93.3
2017-03-05T13:42:04.637Z,93.3
2017-03-05T13:43:07.590Z,93.3
2017-03-05T13:44:10.291Z,93.3
2017-03-05T13:45:12.747Z,93.2
2017-03-05T13:46:15.534Z,93.2
2017-03-05T13:47:17.981Z,93.2
2017-03-05T13:48:20.944Z,93.1
2017-03-05T13:49:23.657Z,93.1
2017-03-05T13:50:26.111Z,93.1
2017-03-05T13:51:31.275Z,93
2017-03-05T13:52:31.583Z,93
2017-03-05T13:53:34.557Z,93
2017-03-05T13:54:37.253Z,93
2017-03-05T13:55:39.695Z,93
2017-03-05T13:56:42.646Z,93
2017-03-05T13:57:44.930Z,93
2017-03-05T13:58:47.876Z,93
2017-03-05T13:59:50.573Z,93.1
2017-03-05T14:00:53.037Z,93.1
2017-03-05T14:01:56.009Z,93.1
2017-03-05T14:02:58.507Z,93.2
2017-03-05T14:04:01.480Z,93.2
2017-03-05T14:05:04.207Z,93.2
2017-03-05T14:06:06.667Z,93.3
2017-03-05T14:07:09.475Z,93.3
2017-03-05T14:08:11.928Z,93.3
2017-03-05T14:09:14.748Z,93.3
2017-03-05T14:10:18.003Z,93.2
2017-03-05T14:11:19.955Z,93.2
2017-03-05T14:12:22.909Z,93.2
2017-03-05T14:13:25.362Z,93.2
2017-03-05T14:14:28.326Z,93.2
2017-03-05T14:15:31.045Z,93.2
2017-03-05T14:16:33.343Z,93.2
2017-03-05T14:17:36.135Z,93.1
2017-03-05T14:18:39.109Z,93.2
2017-03-05T14:19:41.557Z,93.2
2017-03-05T14:20:44.760Z,93.2
2017-03-05T14:21:47.220Z,93.2
2017-03-05T14:22:49.688Z,93.2
2017-03-05T14:23:52.638Z,93.2
2017-03-05T14:24:55.096Z,93.2
2017-03-05T14:25:58.311Z,93.3
2017-03-05T14:27:00.769Z,93.3
2017-03-05T14:28:03.238Z,93.3
2017-03-05T14:29:06.198Z,93.3
2017-03-05T14:30:08.653Z,93.3
2017-03-05T14:31:11.912Z,93.3
2017-03-05T14:32:13.713Z,93.3
2017-03-05T14:33:16.671Z,93.3
2017-03-05T14:34:19.461Z,93.3
2017-03-05T14:35:21.949Z,93.3
2017-03-05T14:36:25.160Z,93.4